Time;durP1;ratioP1;P1;durP2;ratioP2;P2;SDS_P1;SDS_P2;PMS_P1;PMS_P2;Temp;Humidity;BMP_temperature;BMP_pressure;BME280_temperature;BME280_humidity;BME280_pressure;Samples;Min_cycle;Max_cycle;Signal;HPM_P1;HPM_P2
2021/05/18 00:00:00;;;;;;;2.13;0.63;;;10.20;85.60;;;;;;5050264;28;20025;-74
2021/05/18 00:02:26;;;;;;;1.88;0.50;;;10.20;85.60;;;;;;5032410;28;20033;-70
2021/05/18 00:04:51;;;;;;;0.80;0.50;;;10.20;85.70;;;;;;5031283;28;20094;-71
2021/05/18 00:07:21;;;;;;;1.65;0.73;;;10.20;85.70;;;;;;5031563;28;20025;-71
2021/05/18 00:12:32;;;;;;;2.05;0.60;;;10.20;85.70;;;;;;5050299;28;20385;-71
2021/05/18 00:15:00;;;;;;;0.93;0.60;;;10.20;85.80;;;;;;5049278;28;20045;-71
2021/05/18 00:17:27;;;;;;;2.20;0.65;;;10.10;85.80;;;;;;5032133;28;20342;-71
2021/05/18 00:19:53;;;;;;;1.58;0.60;;;10.10;85.80;;;;;;5032221;28;20021;-72
2021/05/18 00:22:18;;;;;;;1.55;0.50;;;10.10;85.90;;;;;;5032081;28;20033;-70
2021/05/18 00:24:44;;;;;;;0.77;0.50;;;10.00;85.90;;;;;;5048831;28;20060;-71
2021/05/18 00:27:10;;;;;;;1.38;0.60;;;10.00;85.90;;;;;;5032137;28;20477;-71
2021/05/18 00:29:36;;;;;;;0.50;0.50;;;10.00;86.00;;;;;;5049901;28;20485;-71
2021/05/18 00:32:01;;;;;;;1.40;0.60;;;10.00;86.10;;;;;;5031951;28;20044;-71
2021/05/18 00:34:27;;;;;;;0.50;0.50;;;9.90;86.00;;;;;;5048918;28;20047;-72
2021/05/18 00:36:53;;;;;;;1.95;0.52;;;9.90;86.10;;;;;;5045446;28;20025;-71
2021/05/18 00:39:19;;;;;;;0.45;0.45;;;9.90;86.20;;;;;;5049999;28;20029;-72
2021/05/18 00:41:48;;;;;;;1.00;0.55;;;9.90;86.20;;;;;;5031659;28;20104;-71
2021/05/18 00:44:15;;;;;;;0.60;0.60;;;9.80;86.30;;;;;;5029140;28;20025;-72
2021/05/18 00:46:42;;;;;;;0.57;0.57;;;9.80;86.40;;;;;;5035302;28;20040;-74
2021/05/18 00:49:07;;;;;;;0.50;0.50;;;9.80;86.60;;;;;;5053545;28;20140;-71
2021/05/18 00:51:33;;;;;;;0.90;0.60;;;9.80;86.70;;;;;;5035699;28;20165;-71
2021/05/18 00:54:01;;;;;;;0.85;0.60;;;9.80;86.80;;;;;;5052486;28;20037;-71
2021/05/18 00:59:05;;;;;;;0.60;0.60;;;9.80;86.90;;;;;;5053012;28;20078;-73
2021/05/18 01:01:31;;;;;;;2.85;0.65;;;9.80;86.90;;;;;;5053223;28;20032;-72
2021/05/18 01:03:59;;;;;;;0.85;0.55;;;9.80;86.90;;;;;;5052594;28;20071;-71
2021/05/18 01:09:07;;;;;;;1.02;0.40;;;9.80;87.10;;;;;;5053156;28;20087;-72
2021/05/18 01:11:33;;;;;;;1.08;0.30;;;9.80;87.20;;;;;;5052733;28;20021;-71
2021/05/18 01:14:02;;;;;;;1.92;0.50;;;9.80;87.10;;;;;;5052282;28;20037;-72
2021/05/18 01:16:30;;;;;;;0.57;0.50;;;9.80;87.00;;;;;;5052777;28;20029;-72
2021/05/18 01:18:56;;;;;;;0.75;0.45;;;9.70;87.10;;;;;;5052779;28;20124;-71
2021/05/18 01:21:22;;;;;;;3.67;0.60;;;9.70;87.10;;;;;;5035113;28;20112;-72
2021/05/18 01:23:48;;;;;;;1.42;0.57;;;9.70;87.20;;;;;;5034897;28;20029;-71
2021/05/18 01:26:14;;;;;;;0.50;0.50;;;9.70;87.30;;;;;;5052290;28;20381;-73
2021/05/18 01:28:41;;;;;;;2.03;0.50;;;9.70;87.40;;;;;;5052672;28;20032;-72
2021/05/18 01:31:09;;;;;;;0.65;0.50;;;9.70;87.40;;;;;;5034772;28;20029;-72
2021/05/18 01:33:35;;;;;;;0.70;0.40;;;9.70;87.50;;;;;;5052762;28;20068;-72
2021/05/18 01:36:02;;;;;;;0.75;0.60;;;9.70;87.70;;;;;;5051886;28;20020;-71
2021/05/18 01:38:41;;;;;;;0.45;0.45;;;9.70;87.60;;;;;;5043506;28;20064;-72
2021/05/18 01:43:54;;;;;;;0.55;0.50;;;9.70;87.80;;;;;;5051429;28;20059;-72
2021/05/18 01:46:22;;;;;;;1.15;0.50;;;9.70;87.80;;;;;;5034506;28;20445;-74
2021/05/18 01:49:09;;;;;;;2.40;0.50;;;9.70;87.80;;;;;;5052234;28;20036;-73
2021/05/18 01:51:37;;;;;;;0.55;0.55;;;9.70;88.00;;;;;;5034886;28;20025;-71
2021/05/18 01:54:28;;;;;;;0.60;0.60;;;9.70;87.90;;;;;;5051312;28;20036;-72
2021/05/18 01:59:40;;;;;;;0.63;0.50;;;9.70;87.80;;;;;;5052197;28;20055;-72
2021/05/18 02:02:07;;;;;;;1.73;0.65;;;9.70;87.70;;;;;;5034293;28;20452;-72
2021/05/18 02:05:01;;;;;;;0.55;0.55;;;9.60;87.70;;;;;;5032789;28;20028;-72
2021/05/18 02:07:37;;;;;;;2.58;0.70;;;9.70;88.00;;;;;;5032816;28;20560;-72
2021/05/18 02:10:08;;;;;;;0.70;0.70;;;9.60;88.00;;;;;;5071981;22;20057;-87
2021/05/18 02:12:34;;;;;;;3.15;0.90;;;9.60;87.90;;;;;;5028740;28;20036;-89
2021/05/18 02:15:12;;;;;;;0.70;0.70;;;9.70;88.10;;;;;;5013921;28;20025;-87
2021/05/18 02:17:42;;;;;;;1.08;0.77;;;9.60;88.00;;;;;;5012078;28;20026;-88
2021/05/18 02:25:25;;;;;;;2.40;0.80;;;9.70;88.10;;;;;;5031454;28;20397;-88
2021/05/18 02:27:52;;;;;;;0.65;0.60;;;9.70;88.00;;;;;;5015141;28;20033;-88
2021/05/18 02:30:19;;;;;;;1.67;0.80;;;9.60;88.00;;;;;;5014676;28;20393;-87
2021/05/18 02:32:46;;;;;;;1.70;0.90;;;9.70;88.20;;;;;;5014137;28;20055;-88
2021/05/18 02:35:15;;;;;;;1.83;0.80;;;9.60;88.10;;;;;;5031722;28;20056;-87
2021/05/18 02:37:43;;;;;;;0.70;0.70;;;9.60;88.20;;;;;;5027246;28;20038;-87
2021/05/18 02:40:24;;;;;;;1.77;0.70;;;9.60;88.20;;;;;;5000988;28;20030;-87
2021/05/18 02:42:51;;;;;;;1.05;0.80;;;9.60;88.30;;;;;;5011535;28;20029;-88
2021/05/18 02:45:34;;;;;;;0.88;0.70;;;9.60;88.40;;;;;;4999437;28;20026;-87
2021/05/18 02:50:44;;;;;;;1.23;0.68;;;9.60;88.30;;;;;;5049269;28;19928;-87
2021/05/18 02:53:10;;;;;;;1.42;0.57;;;9.60;88.40;;;;;;5055802;28;20018;-88
2021/05/18 02:55:45;;;;;;;3.40;0.73;;;9.60;88.50;;;;;;5038260;28;20048;-88
2021/05/18 02:58:12;;;;;;;1.58;0.80;;;9.60;88.60;;;;;;5055441;28;20049;-87
2021/05/18 03:00:38;;;;;;;0.55;0.55;;;9.60;88.50;;;;;;5036684;28;20017;-87
2021/05/18 03:03:04;;;;;;;0.63;0.63;;;9.60;88.60;;;;;;5035875;28;20036;-88
2021/05/18 03:05:29;;;;;;;0.70;0.70;;;9.60;88.60;;;;;;5034867;28;20029;-87
2021/05/18 03:07:55;;;;;;;0.80;0.70;;;9.60;88.70;;;;;;5017761;28;20345;-87
2021/05/18 03:10:22;;;;;;;0.82;0.70;;;9.60;88.70;;;;;;5010705;28;20064;-87
2021/05/18 03:12:48;;;;;;;1.20;0.80;;;9.60;88.80;;;;;;5014063;28;20029;-87
2021/05/18 03:15:14;;;;;;;0.80;0.80;;;9.60;88.90;;;;;;5013114;28;20053;-87
2021/05/18 03:17:40;;;;;;;1.10;0.60;;;9.60;88.80;;;;;;5030733;28;20120;-87
2021/05/18 03:20:08;;;;;;;1.58;0.80;;;9.60;88.70;;;;;;5014495;28;20553;-87
2021/05/18 03:22:34;;;;;;;0.90;0.80;;;9.60;88.80;;;;;;5014278;28;20033;-88
2021/05/18 03:24:59;;;;;;;1.33;0.90;;;9.60;88.70;;;;;;5013171;28;20017;-87
2021/05/18 03:27:27;;;;;;;0.75;0.75;;;9.60;88.80;;;;;;5013390;28;20026;-88
2021/05/18 03:29:53;;;;;;;0.93;0.85;;;9.50;88.80;;;;;;5014713;28;20030;-88
2021/05/18 03:35:04;;;;;;;0.70;0.70;;;9.50;88.90;;;;;;5031726;28;20052;-88
2021/05/18 03:40:01;;;;;;;2.00;0.98;;;9.50;89.00;;;;;;5023529;28;20112;-87
2021/05/18 03:42:33;;;;;;;0.77;0.77;;;9.50;89.10;;;;;;5004646;28;20022;-88
2021/05/18 03:53:06;;;;;;;2.80;0.90;;;9.50;89.00;;;;;;5022947;28;20118;-87
2021/05/18 03:58:40;;;;;;;1.05;0.60;;;9.60;89.20;;;;;;5031341;28;20032;-88
2021/05/18 04:12:15;;;;;;;1.33;0.63;;;9.60;88.80;;;;;;5020313;28;20053;-87
2021/05/18 04:17:27;;;;;;;0.60;0.55;;;9.60;89.00;;;;;;5033944;28;20083;-87
2021/05/18 04:39:24;;;;;;;0.95;0.80;;;9.70;89.10;;;;;;5035436;28;20045;-87
2021/05/18 04:52:28;;;;;;;1.35;0.90;;;9.70;88.90;;;;;;5036931;28;20500;-87
2021/05/18 05:00:34;;;;;;;0.88;0.82;;;9.70;88.80;;;;;;5034609;28;20115;-87
2021/05/18 05:09:21;;;;;;;1.80;0.75;;;9.80;88.90;;;;;;5028962;28;20036;-87
2021/05/18 05:16:26;;;;;;;2.50;0.77;;;9.90;88.90;;;;;;5034218;28;20040;-87
2021/05/18 05:18:53;;;;;;;1.25;0.70;;;9.90;88.90;;;;;;5016589;28;20026;-87
2021/05/18 05:21:27;;;;;;;1.83;0.85;;;9.90;89.40;;;;;;5034122;28;20037;-86
2021/05/18 05:23:53;;;;;;;1.35;1.25;;;9.90;89.10;;;;;;5014091;28;20501;-87
2021/05/18 05:26:18;;;;;;;4.22;0.90;;;10.00;88.90;;;;;;5015550;28;20017;-87
2021/05/18 05:28:44;;;;;;;2.85;1.20;;;10.00;88.80;;;;;;5032332;28;20030;-87
2021/05/18 05:31:10;;;;;;;1.08;0.77;;;9.90;88.70;;;;;;5034534;28;20393;-88
2021/05/18 05:33:35;;;;;;;0.90;0.73;;;9.90;88.70;;;;;;5016123;28;20021;-88
2021/05/18 05:36:01;;;;;;;1.65;0.90;;;9.90;88.70;;;;;;5015569;28;20036;-87
2021/05/18 05:38:29;;;;;;;1.00;1.00;;;9.90;88.70;;;;;;5015754;28;20026;-88
2021/05/18 05:40:55;;;;;;;0.77;0.73;;;9.90;88.50;;;;;;5008661;28;20398;-88
2021/05/18 05:43:20;;;;;;;2.72;1.65;;;9.90;88.50;;;;;;5000436;28;20108;-88
2021/05/18 05:45:46;;;;;;;2.65;1.02;;;9.90;88.60;;;;;;5010370;28;20014;-87
2021/05/18 05:48:12;;;;;;;1.85;0.73;;;9.90;88.40;;;;;;4996150;28;20056;-88
2021/05/18 05:50:37;;;;;;;4.05;0.80;;;9.90;88.40;;;;;;5030117;28;20025;-87
2021/05/18 05:53:03;;;;;;;3.00;0.80;;;9.90;88.40;;;;;;5023515;28;20033;-87
2021/05/18 05:55:28;;;;;;;2.42;0.90;;;10.00;88.40;;;;;;5014561;28;20052;-87
2021/05/18 05:57:54;;;;;;;2.03;0.82;;;10.00;88.50;;;;;;5014668;28;20296;-87
2021/05/18 06:00:20;;;;;;;1.10;1.00;;;10.10;88.50;;;;;;5033097;28;20021;-87
2021/05/18 06:02:46;;;;;;;2.05;0.90;;;10.10;88.50;;;;;;5033232;28;20434;-88
2021/05/18 06:05:11;;;;;;;6.00;3.58;;;10.10;88.50;;;;;;5014664;28;20052;-87
2021/05/18 06:07:37;;;;;;;5.00;1.70;;;10.10;88.30;;;;;;5014430;28;20036;-87
2021/05/18 06:10:12;;;;;;;3.33;1.00;;;10.10;88.40;;;;;;5015419;28;20040;-87
2021/05/18 06:35:24;;;;;;;1.42;1.25;;;10.30;88.40;;;;;;4989805;28;20568;-87
2021/05/18 06:37:48;;;;;;;3.75;1.13;;;10.20;88.00;;;;;;5013050;28;20045;-87
2021/05/18 06:45:56;;;;;;;1.40;1.30;;;10.30;87.90;;;;;;5016703;28;20026;-88
2021/05/18 06:48:22;;;;;;;2.13;1.45;;;10.30;88.00;;;;;;5014950;28;20175;-87
2021/05/18 06:50:49;;;;;;;2.28;1.15;;;10.30;87.80;;;;;;5014736;28;20489;-87
2021/05/18 06:53:15;;;;;;;4.00;2.17;;;10.30;87.80;;;;;;5032198;28;20029;-87
2021/05/18 06:55:41;;;;;;;1.60;1.30;;;10.40;88.00;;;;;;5014310;28;20029;-88
2021/05/18 07:00:36;;;;;;;2.45;1.30;;;10.50;88.00;;;;;;5032291;28;20033;-87
2021/05/18 07:03:03;;;;;;;3.47;1.33;;;10.50;88.00;;;;;;5031155;28;20029;-88
2021/05/18 07:05:52;;;;;;;1.70;1.60;;;10.50;87.90;;;;;;5014678;28;20408;-87
2021/05/18 07:10:46;;;;;;;2.10;1.98;;;10.60;87.80;;;;;;5019617;28;20033;-87
2021/05/18 07:13:13;;;;;;;3.83;1.30;;;10.60;87.80;;;;;;5013211;28;20029;-87
2021/05/18 07:15:39;;;;;;;2.40;1.48;;;10.70;87.60;;;;;;5012407;28;20026;-87
2021/05/18 07:18:06;;;;;;;2.75;1.67;;;10.70;87.50;;;;;;5004007;28;20256;-87
2021/05/18 07:20:32;;;;;;;2.80;1.35;;;10.70;87.60;;;;;;5014853;28;20025;-88
2021/05/18 07:23:01;;;;;;;1.45;1.35;;;10.70;87.60;;;;;;5014280;28;20405;-87
2021/05/18 07:25:27;;;;;;;1.80;1.25;;;10.70;87.70;;;;;;5014052;28;20025;-87
2021/05/18 07:27:53;;;;;;;1.23;1.15;;;10.70;87.70;;;;;;5011018;28;20018;-87
2021/05/18 07:30:19;;;;;;;1.92;1.10;;;10.60;87.40;;;;;;5020478;28;20082;-87
2021/05/18 07:32:45;;;;;;;2.28;1.52;;;10.60;87.20;;;;;;5006413;28;20022;-87
2021/05/18 07:35:11;;;;;;;1.33;1.23;;;10.60;87.50;;;;;;5031505;28;20044;-87
2021/05/18 07:37:38;;;;;;;1.98;1.35;;;10.70;87.40;;;;;;5014560;28;20111;-87
2021/05/18 07:40:05;;;;;;;1.30;1.20;;;10.90;87.40;;;;;;5014610;28;20040;-87
2021/05/18 07:42:31;;;;;;;1.20;1.10;;;11.00;87.40;;;;;;5032380;28;20029;-87
2021/05/18 07:44:56;;;;;;;1.17;1.08;;;11.00;87.30;;;;;;5030471;28;20096;-87
2021/05/18 07:47:28;;;;;;;1.40;0.98;;;11.00;87.00;;;;;;5021847;28;20041;-87
2021/05/18 07:49:59;;;;;;;1.30;1.10;;;11.00;86.80;;;;;;5055370;28;20053;-88
2021/05/18 08:05:50;;;;;;;0.93;0.93;;;11.30;86.50;;;;;;5052933;28;20052;-88
2021/05/18 08:08:17;;;;;;;4.32;0.88;;;12.40;85.00;;;;;;5021437;28;20029;-88
2021/05/18 08:10:59;;;;;;;2.20;0.85;;;13.30;83.00;;;;;;5031465;28;20505;-88
2021/05/18 08:13:25;;;;;;;1.67;0.90;;;13.40;82.60;;;;;;5024969;23;20045;-90
2021/05/18 08:16:35;;;;;;;0.93;0.80;;;13.00;83.30;;;;;;5050892;28;20029;-88
2021/05/18 08:21:53;;;;;;;2.03;0.88;;;13.50;82.70;;;;;;5041508;28;20040;-90
2021/05/18 09:02:08;;;;;;;2.67;0.70;;;17.90;72.50;;;;;;5051740;28;20071;-90
2021/05/18 09:49:31;;;;;;;3.25;0.75;;;15.20;73.50;;;;;;5072290;28;20108;-72
2021/05/18 10:38:35;;;;;;;1.55;0.75;;;14.10;72.80;;;;;;5051682;28;20075;-70
2021/05/18 10:41:10;;;;;;;3.45;0.70;;;14.10;73.20;;;;;;5055108;28;20277;-70
2021/05/18 10:43:59;;;;;;;4.65;0.75;;;13.90;72.80;;;;;;5068626;28;20295;-71
2021/05/18 10:46:32;;;;;;;1.52;0.60;;;13.80;72.80;;;;;;5050865;28;20369;-74
2021/05/18 10:49:06;;;;;;;2.78;0.50;;;13.60;73.00;;;;;;5047133;28;20032;-71
2021/05/18 10:51:44;;;;;;;3.50;0.82;;;13.70;73.10;;;;;;5050712;28;20025;-71
2021/05/18 10:54:19;;;;;;;3.63;1.25;;;13.90;73.80;;;;;;5049938;28;20631;-71
2021/05/18 10:56:53;;;;;;;1.83;0.70;;;14.20;74.70;;;;;;5065470;28;20598;-72
2021/05/18 10:59:32;;;;;;;3.05;0.70;;;14.40;73.80;;;;;;5075711;28;20016;-71
2021/05/18 11:02:01;;;;;;;1.13;0.60;;;14.60;74.10;;;;;;5064083;28;20294;-71
2021/05/18 11:04:27;;;;;;;2.25;0.70;;;14.90;74.30;;;;;;5051541;28;20025;-70
2021/05/18 11:06:55;;;;;;;5.05;0.60;;;15.00;73.30;;;;;;5066085;28;20016;-71
2021/05/18 11:09:22;;;;;;;1.33;0.88;;;15.20;73.00;;;;;;5074388;28;20035;-70
2021/05/18 11:11:49;;;;;;;2.20;0.65;;;15.20;72.20;;;;;;5067559;28;20109;-71
2021/05/18 11:14:34;;;;;;;2.65;0.57;;;15.20;71.50;;;;;;5084087;28;20431;-72
2021/05/18 11:17:07;;;;;;;2.03;0.70;;;15.20;71.10;;;;;;5072350;28;20374;-71
2021/05/18 11:19:33;;;;;;;1.10;0.50;;;15.20;71.50;;;;;;5069419;28;20107;-72
2021/05/18 11:22:00;;;;;;;2.47;0.88;;;15.10;71.60;;;;;;5071655;28;20131;-72
2021/05/18 11:24:26;;;;;;;2.28;0.57;;;15.00;71.70;;;;;;5046486;28;20545;-72
2021/05/18 11:26:51;;;;;;;2.30;0.50;;;15.00;71.50;;;;;;5057235;28;20017;-71
2021/05/18 11:29:41;;;;;;;2.13;0.80;;;14.80;70.70;;;;;;5057969;28;20028;-71
2021/05/18 11:32:10;;;;;;;3.15;0.73;;;14.60;70.50;;;;;;5042514;28;20029;-71
2021/05/18 11:34:58;;;;;;;3.00;0.50;;;14.40;71.10;;;;;;5068787;28;20036;-71
2021/05/18 11:37:24;;;;;;;1.90;0.60;;;14.30;71.40;;;;;;5068329;28;20025;-71
2021/05/18 11:39:50;;;;;;;2.13;0.70;;;14.30;71.70;;;;;;5070364;28;20048;-71
2021/05/18 11:42:29;;;;;;;2.95;0.80;;;14.20;71.70;;;;;;5069846;28;20433;-71
2021/05/18 11:45:26;;;;;;;3.70;0.95;;;14.10;71.80;;;;;;5050282;28;20021;-71
2021/05/18 11:47:52;;;;;;;2.72;0.60;;;13.70;71.70;;;;;;5043670;28;20024;-71
2021/05/18 11:50:26;;;;;;;3.85;0.70;;;13.40;72.60;;;;;;5070347;28;20024;-71
2021/05/18 11:52:54;;;;;;;1.20;0.52;;;13.10;73.70;;;;;;5052207;28;20081;-71
2021/05/18 11:55:22;;;;;;;2.55;0.60;;;13.20;74.60;;;;;;5069928;28;20029;-71
2021/05/18 11:57:51;;;;;;;0.98;0.50;;;13.20;75.10;;;;;;5070201;28;20028;-71
2021/05/18 12:00:23;;;;;;;1.35;0.52;;;13.20;75.40;;;;;;5070443;28;20028;-71
2021/05/18 12:02:57;;;;;;;;;;;13.20;75.30;;;;;;5062477;28;20032;-71
2021/05/18 12:05:23;;;;;;;4.88;2.35;;;13.10;75.00;;;;;;5068823;28;20272;-71
2021/05/18 12:07:48;;;;;;;1.27;0.60;;;13.00;75.70;;;;;;5065429;28;20024;-71
2021/05/18 12:10:30;;;;;;;0.60;0.50;;;13.10;76.10;;;;;;5068898;28;20099;-71
2021/05/18 12:12:56;;;;;;;2.47;0.60;;;13.20;77.00;;;;;;5070375;28;20415;-71
2021/05/18 12:15:22;;;;;;;2.53;0.60;;;13.20;76.00;;;;;;5069416;28;20029;-71
2021/05/18 12:17:51;;;;;;;2.33;0.63;;;13.10;75.50;;;;;;5052420;28;20028;-71
2021/05/18 12:20:17;;;;;;;0.93;0.50;;;13.20;76.20;;;;;;5069976;28;20044;-71
2021/05/18 12:22:48;;;;;;;1.42;0.68;;;13.40;76.40;;;;;;5070267;28;20107;-72
2021/05/18 12:25:35;;;;;;;3.00;0.90;;;13.70;76.90;;;;;;5071051;28;20111;-71
2021/05/18 12:28:11;;;;;;;1.63;0.70;;;14.00;77.10;;;;;;5062713;28;20024;-71
2021/05/18 12:30:40;;;;;;;2.38;0.82;;;14.40;77.10;;;;;;5066396;28;20021;-71
2021/05/18 12:33:06;;;;;;;1.63;0.68;;;14.60;76.30;;;;;;5054503;28;20062;-72
2021/05/18 12:35:32;;;;;;;4.00;0.90;;;14.80;76.50;;;;;;5060133;28;20027;-71
2021/05/18 12:37:58;;;;;;;1.75;0.70;;;15.00;76.50;;;;;;5060187;28;20040;-71
2021/05/18 12:40:29;;;;;;;2.83;0.68;;;15.00;75.60;;;;;;5053695;28;20387;-71
2021/05/18 12:43:12;;;;;;;4.70;0.90;;;14.80;74.70;;;;;;5069683;28;20052;-71
2021/05/18 12:45:39;;;;;;;2.40;0.68;;;14.70;74.60;;;;;;5043695;28;20137;-71
2021/05/18 12:48:05;;;;;;;2.03;0.90;;;14.60;75.10;;;;;;5065376;28;20031;-71
2021/05/18 12:50:46;;;;;;;2.13;0.73;;;14.50;75.30;;;;;;5073228;28;20103;-72
2021/05/18 12:53:32;;;;;;;3.03;0.70;;;14.40;74.70;;;;;;5072878;28;20070;-72
2021/05/18 12:55:59;;;;;;;1.65;0.70;;;14.20;74.70;;;;;;5071674;28;20028;-71
2021/05/18 12:58:33;;;;;;;1.23;0.45;;;14.00;75.20;;;;;;5072403;28;20025;-72
2021/05/18 13:01:13;;;;;;;1.65;0.50;;;14.00;74.80;;;;;;5072899;28;20346;-72
2021/05/18 13:03:41;;;;;;;1.95;0.60;;;13.90;76.30;;;;;;5073005;28;20025;-72
2021/05/18 13:06:07;;;;;;;2.92;2.00;;;14.00;76.80;;;;;;5069291;28;20028;-72
2021/05/18 13:08:32;;;;;;;1.92;0.70;;;14.00;77.60;;;;;;5048780;28;20029;-72
2021/05/18 13:12:11;;;;;;;1.08;0.60;;;14.10;77.80;;;;;;5075858;28;20078;-72
2021/05/18 13:14:04;;;;;;;2.60;0.98;;;14.20;77.90;;;;;;5064448;28;20554;-71
2021/05/18 13:16:34;;;;;;;1.63;0.60;;;14.40;78.00;;;;;;5050813;28;20033;-71
2021/05/18 13:19:06;;;;;;;0.70;0.50;;;14.40;77.00;;;;;;5053072;28;20500;-71
2021/05/18 13:21:48;;;;;;;1.30;0.40;;;14.40;77.00;;;;;;5067677;28;20052;-71
2021/05/18 13:26:40;;;;;;;2.05;0.50;;;14.60;76.80;;;;;;5070846;28;20028;-71
2021/05/18 13:29:08;;;;;;;2.10;0.90;;;14.60;76.30;;;;;;5070447;28;20021;-71
2021/05/18 13:31:38;;;;;;;2.45;0.60;;;14.60;76.20;;;;;;5071831;28;20028;-71
2021/05/18 13:34:04;;;;;;;1.00;0.47;;;14.70;75.80;;;;;;5069502;28;20031;-71
2021/05/18 13:36:33;;;;;;;0.63;0.35;;;14.70;75.40;;;;;;5065696;28;20109;-71
2021/05/18 13:39:18;;;;;;;1.23;0.50;;;14.70;75.10;;;;;;5079089;28;20052;-71
2021/05/18 13:41:44;;;;;;;2.97;0.60;;;14.70;74.40;;;;;;5070702;28;20029;-71
2021/05/18 13:44:10;;;;;;;3.38;0.75;;;14.70;74.90;;;;;;5052781;28;20097;-70
2021/05/18 13:46:36;;;;;;;1.35;0.43;;;14.70;74.90;;;;;;5071615;28;20496;-71
2021/05/18 13:49:02;;;;;;;2.67;0.60;;;14.70;74.60;;;;;;5053152;28;20025;-71
2021/05/18 13:51:28;;;;;;;3.60;0.55;;;14.80;74.20;;;;;;5071855;28;20058;-71
2021/05/18 13:53:54;;;;;;;1.00;0.50;;;14.80;73.40;;;;;;5072504;28;20024;-71
2021/05/18 13:56:21;;;;;;;1.85;0.52;;;14.70;73.30;;;;;;5072359;28;20025;-70
2021/05/18 13:58:46;;;;;;;3.53;0.60;;;14.80;73.60;;;;;;5068399;28;20025;-71
2021/05/18 14:01:13;;;;;;;1.83;0.43;;;14.80;73.00;;;;;;5063515;28;20070;-71
2021/05/18 14:03:39;;;;;;;1.35;0.47;;;14.80;72.90;;;;;;5071809;28;20109;-71
2021/05/18 14:06:05;;;;;;;1.92;0.50;;;14.90;73.10;;;;;;5071242;28;20495;-71
2021/05/18 14:08:33;;;;;;;5.00;0.63;;;14.90;72.80;;;;;;5046907;28;20032;-71
2021/05/18 14:11:13;;;;;;;2.30;0.50;;;15.00;72.70;;;;;;5070775;28;20021;-71
2021/05/18 14:13:47;;;;;;;2.53;0.60;;;15.00;72.10;;;;;;5071883;28;20035;-71
2021/05/18 14:16:18;;;;;;;3.08;0.65;;;15.10;72.30;;;;;;5107552;22;20145;-73
2021/05/18 14:18:46;;;;;;;2.53;0.30;;;15.20;71.70;;;;;;5053049;28;20487;-73
2021/05/18 14:21:11;;;;;;;0.32;0.32;;;15.30;71.40;;;;;;5052001;28;20031;-73
2021/05/18 14:26:02;;;;;;;1.00;0.40;;;15.40;70.50;;;;;;5046021;28;20029;-73
2021/05/18 14:28:28;;;;;;;2.10;0.60;;;15.40;70.40;;;;;;5060305;28;20021;-73
2021/05/18 14:30:54;;;;;;;2.20;0.52;;;15.40;70.00;;;;;;5057648;28;20056;-73
2021/05/18 14:33:20;;;;;;;0.85;0.45;;;15.40;69.60;;;;;;5043542;28;20029;-73
2021/05/18 14:35:46;;;;;;;2.72;0.40;;;15.40;69.80;;;;;;5050237;28;20031;-73
2021/05/18 14:38:18;;;;;;;6.65;0.40;;;15.40;69.70;;;;;;5051781;28;20029;-73
2021/05/18 14:43:49;;;;;;;0.50;0.40;;;15.50;69.20;;;;;;5052032;28;20037;-73
2021/05/18 14:46:49;;;;;;;1.65;0.55;;;15.50;69.10;;;;;;5050650;28;20036;-73
2021/05/18 14:56:50;;;;;;;2.00;0.38;;;15.20;68.70;;;;;;5048709;28;20052;-72
2021/05/18 14:59:16;;;;;;;1.13;0.40;;;15.20;68.50;;;;;;5049447;28;20057;-73
2021/05/18 15:01:41;;;;;;;1.23;0.50;;;15.20;68.50;;;;;;5038550;28;20029;-73
2021/05/18 15:04:07;;;;;;;2.30;0.85;;;15.20;68.60;;;;;;5048925;28;20612;-72
2021/05/18 15:06:33;;;;;;;1.50;0.47;;;15.10;68.40;;;;;;5051571;28;20412;-73
2021/05/18 15:08:59;;;;;;;1.38;0.45;;;15.00;68.20;;;;;;5027921;28;20393;-71
2021/05/18 15:11:25;;;;;;;0.70;0.52;;;14.70;68.10;;;;;;5056051;28;20013;-72
2021/05/18 15:13:51;;;;;;;0.38;0.38;;;14.60;68.20;;;;;;5047309;28;20032;-74
2021/05/18 15:16:16;;;;;;;0.82;0.32;;;14.30;67.90;;;;;;5049571;28;20029;-73
2021/05/18 15:18:44;;;;;;;4.13;0.60;;;14.00;68.30;;;;;;5050496;28;20073;-72
2021/05/18 15:21:10;;;;;;;5.47;0.40;;;13.80;68.30;;;;;;5050982;28;20017;-72
2021/05/18 15:23:36;;;;;;;0.38;0.38;;;13.70;68.80;;;;;;5030553;28;20035;-72
2021/05/18 15:26:01;;;;;;;0.90;0.40;;;13.60;69.40;;;;;;5032221;28;20024;-73
2021/05/18 15:28:27;;;;;;;0.68;0.40;;;13.60;69.80;;;;;;5050388;28;20041;-72
2021/05/18 15:30:54;;;;;;;0.90;0.40;;;13.60;69.60;;;;;;5050689;28;20433;-72
2021/05/18 15:33:20;;;;;;;0.50;0.40;;;13.70;69.80;;;;;;5050870;28;20021;-72
2021/05/18 15:35:46;;;;;;;1.48;0.40;;;13.70;69.40;;;;;;5050560;28;20028;-71
2021/05/18 15:38:11;;;;;;;0.47;0.20;;;13.70;69.40;;;;;;5050563;28;20020;-71
2021/05/18 15:40:37;;;;;;;0.95;0.30;;;13.70;70.00;;;;;;5059591;28;20040;-71
2021/05/18 15:43:02;;;;;;;0.38;0.20;;;13.70;70.00;;;;;;5051908;28;20147;-71
2021/05/18 15:45:29;;;;;;;1.30;0.32;;;13.70;69.70;;;;;;5050169;28;20053;-71
2021/05/18 15:47:54;;;;;;;2.05;0.52;;;13.70;69.50;;;;;;5050669;28;20029;-71
2021/05/18 15:50:20;;;;;;;4.10;1.55;;;13.70;69.50;;;;;;5050552;28;20405;-71
2021/05/18 15:52:45;;;;;;;0.20;0.20;;;13.70;69.60;;;;;;5046695;28;20396;-71
2021/05/18 15:55:11;;;;;;;4.88;0.63;;;13.80;70.20;;;;;;5047558;28;20025;-71
2021/05/18 15:57:37;;;;;;;0.52;0.30;;;13.70;69.50;;;;;;5032033;28;20032;-72
2021/05/18 16:00:05;;;;;;;2.25;0.40;;;13.70;69.60;;;;;;5030081;28;20032;-72
2021/05/18 16:02:30;;;;;;;1.08;0.47;;;13.60;69.80;;;;;;5050130;28;20029;-70
2021/05/18 16:04:56;;;;;;;0.40;0.30;;;13.50;69.90;;;;;;5047993;28;20493;-71
2021/05/18 16:07:24;;;;;;;11.15;0.70;;;13.40;69.90;;;;;;5048991;28;20021;-71
2021/05/18 16:09:51;;;;;;;2.70;0.65;;;13.40;70.10;;;;;;5050095;28;20381;-71
2021/05/18 16:12:16;;;;;;;1.73;0.40;;;13.30;71.00;;;;;;5032458;28;20025;-73
2021/05/18 16:14:44;;;;;;;1.13;0.50;;;13.30;70.50;;;;;;5051151;28;20438;-73
2021/05/18 16:17:09;;;;;;;1.27;0.50;;;13.20;70.70;;;;;;5053368;28;20043;-70
2021/05/18 16:19:35;;;;;;;1.98;0.70;;;13.10;71.10;;;;;;5053134;28;20025;-71
2021/05/18 16:22:02;;;;;;;1.27;0.50;;;13.10;71.50;;;;;;5051367;28;20025;-72
2021/05/18 16:24:30;;;;;;;0.50;0.50;;;13.10;71.80;;;;;;5053056;28;20036;-71
2021/05/18 16:26:56;;;;;;;3.95;0.80;;;13.00;72.10;;;;;;5032524;28;20013;-71
2021/05/18 16:29:21;;;;;;;20.15;14.50;;;12.90;72.50;;;;;;5053326;28;20025;-71
2021/05/18 16:31:47;;;;;;;1.15;0.60;;;12.90;72.90;;;;;;5049001;28;20065;-73
2021/05/18 16:34:13;;;;;;;0.93;0.47;;;12.90;73.00;;;;;;5052241;28;20021;-72
2021/05/18 16:36:39;;;;;;;0.50;0.50;;;12.80;72.80;;;;;;5034032;28;20039;-72
2021/05/18 16:39:08;;;;;;;1.55;0.40;;;12.80;73.00;;;;;;5052618;28;20496;-72
2021/05/18 16:41:35;;;;;;;1.38;0.68;;;12.70;73.50;;;;;;5035994;28;20033;-72
2021/05/18 16:44:01;;;;;;;1.65;0.50;;;12.70;73.70;;;;;;5052726;28;20014;-72
2021/05/18 16:46:27;;;;;;;1.67;0.65;;;12.70;73.90;;;;;;5050545;28;20520;-72
2021/05/18 16:48:53;;;;;;;0.70;0.60;;;12.70;74.20;;;;;;5051429;28;20108;-72
2021/05/18 16:51:18;;;;;;;0.50;0.40;;;12.60;74.50;;;;;;5053731;28;20024;-72
2021/05/18 16:53:48;;;;;;;0.43;0.35;;;12.70;74.50;;;;;;5035333;28;20040;-72
2021/05/18 16:56:14;;;;;;;1.25;0.50;;;12.70;74.50;;;;;;5048487;28;20071;-73
2021/05/18 16:58:39;;;;;;;1.08;0.43;;;12.70;74.60;;;;;;5055378;28;20033;-71
2021/05/18 17:01:05;;;;;;;1.75;0.40;;;12.60;74.60;;;;;;5043426;28;20035;-72
2021/05/18 17:03:30;;;;;;;0.50;0.40;;;12.60;74.70;;;;;;5049660;28;20027;-73
2021/05/18 17:05:57;;;;;;;1.23;0.50;;;12.60;75.00;;;;;;5040372;28;20024;-71
2021/05/18 17:08:23;;;;;;;0.70;0.50;;;12.60;75.10;;;;;;5044807;28;20025;-70
2021/05/18 17:10:48;;;;;;;0.57;0.40;;;12.60;75.30;;;;;;5047313;28;20358;-69
2021/05/18 17:13:14;;;;;;;1.23;0.80;;;12.60;75.50;;;;;;5047908;28;20398;-70
2021/05/18 17:15:39;;;;;;;1.80;1.60;;;12.60;75.30;;;;;;5030924;28;20060;-71
2021/05/18 17:18:06;;;;;;;1.60;0.40;;;12.60;75.70;;;;;;5043403;28;20029;-70
2021/05/18 17:20:35;;;;;;;1.17;0.45;;;12.50;75.60;;;;;;5043855;28;20409;-71
2021/05/18 17:23:00;;;;;;;0.38;0.38;;;12.50;75.70;;;;;;5043236;28;20504;-70
2021/05/18 17:25:26;;;;;;;1.13;0.40;;;12.50;75.90;;;;;;5029057;28;20032;-70
2021/05/18 17:27:52;;;;;;;0.63;0.30;;;12.50;75.80;;;;;;5037976;28;20028;-70
2021/05/18 17:30:23;;;;;;;0.20;0.20;;;12.50;76.20;;;;;;5045467;28;20030;-71
2021/05/18 17:32:49;;;;;;;2.03;0.32;;;12.50;75.90;;;;;;5040148;28;20044;-71
2021/05/18 17:35:15;;;;;;;0.52;0.50;;;12.50;76.00;;;;;;5049088;28;20099;-71
2021/05/18 17:37:42;;;;;;;0.80;0.50;;;12.50;76.00;;;;;;5049471;28;20116;-71
2021/05/18 17:40:09;;;;;;;1.77;0.30;;;12.50;76.10;;;;;;5060241;28;20461;-71
2021/05/18 17:42:34;;;;;;;0.30;0.30;;;12.50;76.00;;;;;;5069691;28;20092;-72
2021/05/18 17:45:05;;;;;;;0.35;0.30;;;12.50;76.00;;;;;;5052069;28;20412;-71
2021/05/18 17:47:34;;;;;;;0.50;0.50;;;12.50;75.90;;;;;;5034567;28;20029;-71
2021/05/18 17:49:59;;;;;;;1.40;0.40;;;12.50;75.90;;;;;;5031249;28;20039;-71